Time;durP1;ratioP1;P1;durP2;ratioP2;P2;SDS_P1;SDS_P2;PMS_P1;PMS_P2;Temp;Humidity;BMP_temperature;BMP_pressure;BME280_temperature;BME280_humidity;BME280_pressure;Samples;Min_cycle;Max_cycle;Signal;HPM_P1;HPM_P2
2023/04/03 00:01:56;;;;;;;1.30;1.20;;;;;;;;;;5118542;28;20217;-62
2023/04/03 00:04:24;;;;;;;1.85;1.38;;;;;;;;;;5118370;28;20203;-62
2023/04/03 00:06:52;;;;;;;1.65;1.35;;;;;;;;;;5118896;28;20218;-62
2023/04/03 00:09:19;;;;;;;1.27;1.17;;;;;;;;;;5118389;28;20717;-62
2023/04/03 00:11:48;;;;;;;1.42;1.33;;;;;;;;;;5118872;28;20595;-62
2023/04/03 00:14:16;;;;;;;1.40;1.30;;;;;;;;;;5118270;28;20644;-62
2023/04/03 00:16:43;;;;;;;1.20;1.10;;;;;;;;;;5117453;28;20195;-62
2023/04/03 00:19:12;;;;;;;1.20;1.10;;;;;;;;;;5118770;28;20298;-62
2023/04/03 00:21:39;;;;;;;1.30;1.20;;;;;;;;;;5118524;28;20247;-62
2023/04/03 00:24:07;;;;;;;1.40;1.30;;;;;;;;;;5118414;28;20203;-62
2023/04/03 00:26:35;;;;;;;1.60;1.23;;;;;;;;;;5118454;28;20238;-62
2023/04/03 00:29:04;;;;;;;1.17;1.08;;;;;;;;;;5118181;28;20213;-62
2023/04/03 00:31:31;;;;;;;1.60;1.30;;;;;;;;;;5118160;28;20211;-62
2023/04/03 00:33:59;;;;;;;1.52;1.33;;;;;;;;;;5118195;28;20529;-62
2023/04/03 00:36:27;;;;;;;1.17;1.02;;;;;;;;;;5118304;28;20290;-62
2023/04/03 00:38:55;;;;;;;1.30;1.20;;;;;;;;;;5118529;28;20293;-62
2023/04/03 00:41:22;;;;;;;1.42;1.20;;;;;;;;;;5118233;28;20210;-62
2023/04/03 00:43:50;;;;;;;1.42;1.33;;;;;;;;;;5118650;28;20210;-62
2023/04/03 00:46:18;;;;;;;1.05;0.90;;;;;;;;;;5117900;28;20226;-62
2023/04/03 00:48:47;;;;;;;1.30;1.20;;;;;;;;;;5117411;28;20203;-62
2023/04/03 00:51:15;;;;;;;1.42;1.15;;;;;;;;;;5117881;28;20234;-62
2023/04/03 00:53:45;;;;;;;1.52;1.23;;;;;;;;;;5118284;28;20213;-62
2023/04/03 00:56:14;;;;;;;1.45;1.20;;;;;;;;;;5117596;28;20245;-62
2023/04/03 00:58:43;;;;;;;1.20;1.10;;;;;;;;;;5118147;28;20480;-62
2023/04/03 01:01:14;;;;;;;1.20;1.10;;;;;;;;;;5117531;28;20478;-62
2023/04/03 01:03:43;;;;;;;1.58;1.20;;;;;;;;;;5116861;28;20207;-62
2023/04/03 01:06:11;;;;;;;1.13;1.05;;;;;;;;;;5117522;28;20203;-62
2023/04/03 01:08:38;;;;;;;1.38;1.15;;;;;;;;;;5117738;28;20198;-62
2023/04/03 01:11:06;;;;;;;1.20;1.10;;;;;;;;;;5117685;28;20226;-62
2023/04/03 01:13:34;;;;;;;1.17;1.08;;;;;;;;;;5117438;28;20205;-62
2023/04/03 01:16:03;;;;;;;1.10;1.00;;;;;;;;;;5117888;28;20202;-62
2023/04/03 01:18:31;;;;;;;1.50;1.20;;;;;;;;;;5118375;28;20203;-62
2023/04/03 01:21:11;;;;;;;1.33;1.20;;;;;;;;;;5117304;28;20241;-62
2023/04/03 01:23:49;;;;;;;1.00;0.90;;;;;;;;;;5117621;28;20598;-62
2023/04/03 01:26:17;;;;;;;1.25;1.00;;;;;;;;;;5117360;28;20207;-62
2023/04/03 01:28:44;;;;;;;1.10;1.00;;;;;;;;;;5122056;28;20263;-62
2023/04/03 01:31:16;;;;;;;1.00;0.90;;;;;;;;;;5121276;28;20311;-62
2023/04/03 01:33:46;;;;;;;0.90;0.90;;;;;;;;;;5121646;28;20311;-62
2023/04/03 01:36:16;;;;;;;1.25;1.02;;;;;;;;;;5121585;28;20202;-62
2023/04/03 01:38:43;;;;;;;1.00;0.85;;;;;;;;;;5122096;28;20203;-62
2023/04/03 01:41:11;;;;;;;1.20;1.10;;;;;;;;;;5121503;28;20198;-62
2023/04/03 01:43:38;;;;;;;1.20;1.00;;;;;;;;;;5121705;28;20217;-62
2023/04/03 01:46:06;;;;;;;1.25;1.00;;;;;;;;;;5120965;28;20203;-62
2023/04/03 01:48:33;;;;;;;1.40;1.08;;;;;;;;;;5120724;28;20216;-62
2023/04/03 01:51:02;;;;;;;1.05;0.95;;;;;;;;;;5121608;28;20343;-62
2023/04/03 01:53:30;;;;;;;1.10;1.00;;;;;;;;;;5121313;28;20504;-62
2023/04/03 01:55:57;;;;;;;1.13;1.00;;;;;;;;;;5121096;28;20203;-62
2023/04/03 01:58:24;;;;;;;1.42;1.05;;;;;;;;;;5121189;28;20202;-62
2023/04/03 02:00:52;;;;;;;0.98;0.90;;;;;;;;;;5120406;28;20195;-62
2023/04/03 02:03:20;;;;;;;1.10;0.90;;;;;;;;;;5120423;28;20203;-62
2023/04/03 02:05:47;;;;;;;1.10;1.00;;;;;;;;;;5121005;28;20209;-62
2023/04/03 02:08:17;;;;;;;1.73;1.25;;;;;;;;;;5121157;28;20301;-62
2023/04/03 02:10:45;;;;;;;1.05;0.95;;;;;;;;;;5121574;28;20226;-62
2023/04/03 02:13:13;;;;;;;1.27;1.17;;;;;;;;;;5121098;28;20203;-62
2023/04/03 02:15:40;;;;;;;1.15;0.90;;;;;;;;;;5120765;28;20203;-62
2023/04/03 02:18:08;;;;;;;1.02;0.75;;;;;;;;;;5120506;28;20217;-62
2023/04/03 02:20:35;;;;;;;1.20;0.90;;;;;;;;;;5120881;28;20199;-62
2023/04/03 02:23:03;;;;;;;1.08;0.90;;;;;;;;;;5121086;28;20626;-62
2023/04/03 02:25:33;;;;;;;0.98;0.98;;;;;;;;;;5121489;28;20203;-62
2023/04/03 02:28:01;;;;;;;0.80;0.80;;;;;;;;;;5102168;28;20231;-62
2023/04/03 02:30:29;;;;;;;0.90;0.75;;;;;;;;;;5099973;28;20763;-62
2023/04/03 02:32:56;;;;;;;1.10;1.00;;;;;;;;;;5099864;28;20242;-62
2023/04/03 02:35:24;;;;;;;1.00;0.90;;;;;;;;;;5100802;28;20204;-62
2023/04/03 02:37:51;;;;;;;0.98;0.88;;;;;;;;;;5100333;28;20461;-62
2023/04/03 02:40:19;;;;;;;1.00;0.90;;;;;;;;;;5102814;28;20194;-62
2023/04/03 02:42:48;;;;;;;1.05;0.88;;;;;;;;;;5120554;28;20339;-62
2023/04/03 02:45:16;;;;;;;1.10;1.00;;;;;;;;;;5120209;28;20241;-62
2023/04/03 02:47:43;;;;;;;1.20;0.90;;;;;;;;;;5119352;28;20195;-62
2023/04/03 02:50:11;;;;;;;1.58;0.80;;;;;;;;;;5102166;28;20262;-62
2023/04/03 02:52:38;;;;;;;1.20;0.90;;;;;;;;;;5099763;28;20246;-62
2023/04/03 02:55:07;;;;;;;1.58;0.82;;;;;;;;;;5099861;28;20247;-62
2023/04/03 02:57:35;;;;;;;0.93;0.90;;;;;;;;;;5099434;28;20249;-62
2023/04/03 03:00:06;;;;;;;1.27;0.80;;;;;;;;;;5099530;28;20253;-62
2023/04/03 03:02:33;;;;;;;0.80;0.73;;;;;;;;;;5098946;28;20572;-62
2023/04/03 03:05:01;;;;;;;1.05;0.85;;;;;;;;;;5099773;28;20203;-62
2023/04/03 03:07:28;;;;;;;1.05;0.95;;;;;;;;;;5099441;28;20640;-62
2023/04/03 03:09:56;;;;;;;1.00;0.90;;;;;;;;;;5099515;28;20209;-62
2023/04/03 03:12:24;;;;;;;1.10;0.90;;;;;;;;;;5099512;28;20295;-62
2023/04/03 03:14:52;;;;;;;0.80;0.80;;;;;;;;;;5099603;28;20552;-62
2023/04/03 03:17:20;;;;;;;0.98;0.88;;;;;;;;;;5097736;28;20210;-62
2023/04/03 03:19:48;;;;;;;1.35;0.90;;;;;;;;;;5099171;28;20302;-62
2023/04/03 03:22:15;;;;;;;0.80;0.80;;;;;;;;;;5099191;28;20286;-62
2023/04/03 03:24:43;;;;;;;1.02;0.90;;;;;;;;;;5099307;28;20255;-62
2023/04/03 03:27:11;;;;;;;0.95;0.80;;;;;;;;;;5098983;28;20493;-62
2023/04/03 03:29:39;;;;;;;1.75;1.00;;;;;;;;;;5099197;28;20203;-62
2023/04/03 03:32:06;;;;;;;1.30;0.70;;;;;;;;;;5097857;28;20227;-61
2023/04/03 03:34:35;;;;;;;1.10;0.70;;;;;;;;;;5098528;28;20226;-61
2023/04/03 03:37:03;;;;;;;0.77;0.70;;;;;;;;;;5098431;28;20208;-61
2023/04/03 03:39:30;;;;;;;1.20;0.93;;;;;;;;;;5098533;28;20203;-61
2023/04/03 03:41:58;;;;;;;1.10;0.90;;;;;;;;;;5098673;28;20199;-61
2023/04/03 03:44:25;;;;;;;0.80;0.80;;;;;;;;;;5098376;28;20211;-61
2023/04/03 03:46:52;;;;;;;1.02;0.80;;;;;;;;;;5097590;28;20222;-61
2023/04/03 03:49:20;;;;;;;0.95;0.73;;;;;;;;;;5098679;28;20283;-61
2023/04/03 03:51:49;;;;;;;1.33;0.70;;;;;;;;;;5097150;28;20223;-61
2023/04/03 03:54:17;;;;;;;1.05;0.80;;;;;;;;;;5098484;28;20215;-61
2023/04/03 03:56:44;;;;;;;0.80;0.80;;;;;;;;;;5098381;28;20235;-61
2023/04/03 03:59:13;;;;;;;1.40;0.90;;;;;;;;;;5098431;28;20212;-61
2023/04/03 04:01:40;;;;;;;0.80;0.80;;;;;;;;;;5096956;28;20206;-61
2023/04/03 04:04:08;;;;;;;0.85;0.65;;;;;;;;;;5098261;28;20203;-61
2023/04/03 04:06:36;;;;;;;0.90;0.80;;;;;;;;;;5097234;28;20527;-61
2023/04/03 04:09:05;;;;;;;0.90;0.80;;;;;;;;;;5097856;28;20211;-61
2023/04/03 04:11:33;;;;;;;0.63;0.60;;;;;;;;;;5098084;28;20563;-61
2023/04/03 04:14:00;;;;;;;0.80;0.80;;;;;;;;;;5097741;28;20204;-61
2023/04/03 04:16:28;;;;;;;1.13;0.80;;;;;;;;;;5097390;28;20210;-61
2023/04/03 04:18:55;;;;;;;0.95;0.77;;;;;;;;;;5097661;28;20560;-61
2023/04/03 04:21:22;;;;;;;0.82;0.80;;;;;;;;;;5097679;28;20497;-61
2023/04/03 04:23:49;;;;;;;0.98;0.80;;;;;;;;;;5097525;28;20211;-61
2023/04/03 04:26:18;;;;;;;1.10;0.90;;;;;;;;;;5097848;28;20594;-61
2023/04/03 04:28:45;;;;;;;0.95;0.77;;;;;;;;;;5096694;28;20211;-61
2023/04/03 04:31:13;;;;;;;0.70;0.70;;;;;;;;;;5096613;28;20225;-61
2023/04/03 04:33:40;;;;;;;1.17;0.70;;;;;;;;;;5095442;28;20216;-61
2023/04/03 04:36:08;;;;;;;0.75;0.70;;;;;;;;;;5096636;28;20317;-61
2023/04/03 04:38:35;;;;;;;1.30;0.90;;;;;;;;;;5096911;28;20689;-61
2023/04/03 04:41:03;;;;;;;0.80;0.80;;;;;;;;;;5097553;28;20223;-61
2023/04/03 04:43:31;;;;;;;1.23;1.10;;;;;;;;;;5096694;28;20203;-61
2023/04/03 04:46:02;;;;;;;1.13;0.95;;;;;;;;;;5096419;28;20204;-61
2023/04/03 04:48:30;;;;;;;0.80;0.80;;;;;;;;;;5096202;28;20211;-61
2023/04/03 04:50:57;;;;;;;0.88;0.80;;;;;;;;;;5095663;28;20273;-61
2023/04/03 04:53:24;;;;;;;0.88;0.88;;;;;;;;;;5095919;28;20211;-61
2023/04/03 04:55:52;;;;;;;1.00;0.80;;;;;;;;;;5095507;28;20590;-61
2023/04/03 04:58:19;;;;;;;0.63;0.63;;;;;;;;;;5096243;28;20257;-61
2023/04/03 05:00:48;;;;;;;1.08;0.98;;;;;;;;;;5094863;28;20207;-61
2023/04/03 05:03:15;;;;;;;0.68;0.68;;;;;;;;;;5094425;28;20211;-61
2023/04/03 05:05:43;;;;;;;1.13;0.90;;;;;;;;;;5095342;28;20305;-61
2023/04/03 05:08:11;;;;;;;1.40;1.20;;;;;;;;;;5094537;28;20204;-61
2023/04/03 05:10:40;;;;;;;0.80;0.80;;;;;;;;;;5093888;28;20641;-61
2023/04/03 05:13:07;;;;;;;1.00;0.90;;;;;;;;;;5094881;28;20211;-61
2023/04/03 05:15:35;;;;;;;1.10;0.90;;;;;;;;;;5093553;28;20610;-62
2023/04/03 05:18:04;;;;;;;1.10;0.90;;;;;;;;;;5093259;28;20212;-62
2023/04/03 05:20:32;;;;;;;0.85;0.82;;;;;;;;;;5093229;28;20288;-62
2023/04/03 05:22:59;;;;;;;1.73;1.00;;;;;;;;;;5094391;28;20466;-62
2023/04/03 05:25:26;;;;;;;1.48;1.10;;;;;;;;;;5095144;28;20210;-62
2023/04/03 05:27:54;;;;;;;3.20;1.20;;;;;;;;;;5094062;28;20598;-62
2023/04/03 05:30:21;;;;;;;2.33;1.48;;;;;;;;;;5093914;28;20211;-62
2023/04/03 05:32:49;;;;;;;3.22;1.73;;;;;;;;;;5073679;28;20236;-62
2023/04/03 05:35:17;;;;;;;4.07;1.70;;;;;;;;;;5073115;28;20214;-62
2023/04/03 05:37:45;;;;;;;4.20;1.85;;;;;;;;;;5073735;28;20200;-62
2023/04/03 05:40:12;;;;;;;3.20;1.73;;;;;;;;;;5073964;28;20266;-62
2023/04/03 05:42:40;;;;;;;4.55;2.40;;;;;;;;;;5073165;28;20266;-62
2023/04/03 05:45:08;;;;;;;4.80;2.30;;;;;;;;;;5073504;28;20510;-62
2023/04/03 05:47:35;;;;;;;4.85;2.60;;;;;;;;;;5072964;28;20204;-62
2023/04/03 05:50:03;;;;;;;4.57;2.50;;;;;;;;;;5073731;28;20302;-62
2023/04/03 05:52:33;;;;;;;5.65;2.92;;;;;;;;;;5073655;28;20231;-62
2023/04/03 05:55:00;;;;;;;6.55;2.92;;;;;;;;;;5073842;28;20211;-62
2023/04/03 05:57:28;;;;;;;5.10;2.72;;;;;;;;;;5073873;28;20232;-62
2023/04/03 05:59:55;;;;;;;5.95;2.90;;;;;;;;;;5073818;28;20204;-62
2023/04/03 06:02:23;;;;;;;7.25;2.95;;;;;;;;;;5073062;28;20197;-62
2023/04/03 06:04:51;;;;;;;6.88;3.45;;;;;;;;;;5073683;28;20204;-62
2023/04/03 06:07:20;;;;;;;8.38;3.50;;;;;;;;;;5075122;28;20297;-62
2023/04/03 06:09:49;;;;;;;4.13;3.03;;;;;;;;;;5075287;28;20204;-62
2023/04/03 06:12:17;;;;;;;7.10;3.45;;;;;;;;;;5074470;28;20247;-62
2023/04/03 06:14:44;;;;;;;8.38;3.45;;;;;;;;;;5075904;28;20205;-62
2023/04/03 06:17:13;;;;;;;9.20;3.97;;;;;;;;;;5078272;28;20215;-62
2023/04/03 06:19:40;;;;;;;7.88;3.75;;;;;;;;;;5078481;28;20212;-62
2023/04/03 06:22:08;;;;;;;5.78;3.45;;;;;;;;;;5078304;28;20497;-62
2023/04/03 06:24:35;;;;;;;10.77;4.05;;;;;;;;;;5078342;28;20212;-62
2023/04/03 06:27:04;;;;;;;5.82;3.30;;;;;;;;;;5078008;28;20205;-62
2023/04/03 06:29:31;;;;;;;7.47;3.75;;;;;;;;;;5078603;28;20228;-62
2023/04/03 06:31:59;;;;;;;8.55;3.72;;;;;;;;;;5077650;28;20220;-62
2023/04/03 06:34:26;;;;;;;6.93;3.42;;;;;;;;;;5078417;28;20238;-62
2023/04/03 06:36:53;;;;;;;7.68;3.47;;;;;;;;;;5078406;28;20219;-61
2023/04/03 06:39:22;;;;;;;7.82;3.60;;;;;;;;;;5078354;28;20212;-61
2023/04/03 06:41:50;;;;;;;8.18;3.83;;;;;;;;;;5077147;28;20215;-61
2023/04/03 06:44:19;;;;;;;7.53;3.60;;;;;;;;;;5077827;28;20212;-61
2023/04/03 06:46:47;;;;;;;6.00;3.90;;;;;;;;;;5077227;28;20208;-61
2023/04/03 06:49:14;;;;;;;9.27;3.95;;;;;;;;;;5076075;28;20291;-61
2023/04/03 06:51:42;;;;;;;8.02;3.47;;;;;;;;;;5076746;28;20298;-61
2023/04/03 06:54:09;;;;;;;6.65;3.42;;;;;;;;;;5077049;28;20204;-61
2023/04/03 06:56:37;;;;;;;7.78;3.90;;;;;;;;;;5076865;28;20647;-61
2023/04/03 06:59:04;;;;;;;6.72;3.90;;;;;;;;;;5076755;28;20204;-61
2023/04/03 07:01:33;;;;;;;5.85;3.30;;;;;;;;;;5076866;28;20208;-61
2023/04/03 07:04:00;;;;;;;5.03;3.00;;;;;;;;;;5076249;28;20392;-61
2023/04/03 07:06:28;;;;;;;6.38;3.88;;;;;;;;;;5075960;28;20207;-61
2023/04/03 07:08:55;;;;;;;7.38;3.72;;;;;;;;;;5076684;28;20204;-61
2023/04/03 07:11:22;;;;;;;6.25;3.38;;;;;;;;;;5075884;28;20239;-61
2023/04/03 07:13:50;;;;;;;7.38;3.67;;;;;;;;;;5077205;28;20227;-61
2023/04/03 07:16:17;;;;;;;7.22;3.60;;;;;;;;;;5076574;28;20536;-61
2023/04/03 07:18:46;;;;;;;6.85;3.60;;;;;;;;;;5076621;28;20223;-61
2023/04/03 07:21:13;;;;;;;6.30;3.85;;;;;;;;;;5075951;28;20200;-61
2023/04/03 07:23:41;;;;;;;5.50;3.40;;;;;;;;;;5074964;28;20615;-61
2023/04/03 07:26:08;;;;;;;6.82;3.38;;;;;;;;;;5076244;28;20211;-61
2023/04/03 07:28:36;;;;;;;6.55;3.60;;;;;;;;;;5077008;28;20279;-61
2023/04/03 07:31:07;;;;;;;8.10;3.92;;;;;;;;;;5075130;28;20204;-61
2023/04/03 07:33:35;;;;;;;6.55;3.70;;;;;;;;;;5075565;28;20200;-61
2023/04/03 07:36:04;;;;;;;4.65;3.45;;;;;;;;;;5073558;28;20247;-61
2023/04/03 07:38:31;;;;;;;6.43;3.72;;;;;;;;;;5075442;28;20250;-61
2023/04/03 07:40:59;;;;;;;5.50;3.50;;;;;;;;;;5075020;28;20242;-61
2023/04/03 07:43:27;;;;;;;6.00;3.78;;;;;;;;;;5075888;28;20207;-61
2023/04/03 07:45:54;;;;;;;6.45;4.07;;;;;;;;;;5074919;28;20383;-62
2023/04/03 07:48:22;;;;;;;7.00;3.80;;;;;;;;;;5075265;28;20204;-62
2023/04/03 07:50:50;;;;;;;6.72;4.35;;;;;;;;;;5075167;28;20588;-62
2023/04/03 07:53:19;;;;;;;4.75;3.58;;;;;;;;;;5074342;28;20243;-62
2023/04/03 07:55:48;;;;;;;6.43;3.85;;;;;;;;;;5075177;28;20215;-62
2023/04/03 07:58:16;;;;;;;7.38;4.18;;;;;;;;;;5074410;28;20456;-62
2023/04/03 08:00:44;;;;;;;6.85;4.35;;;;;;;;;;5075143;28;20204;-62
2023/04/03 08:03:12;;;;;;;9.45;5.63;;;;;;;;;;5074475;28;20380;-62
2023/04/03 08:05:40;;;;;;;9.02;5.47;;;;;;;;;;5073852;28;20270;-62
2023/04/03 08:08:08;;;;;;;9.85;5.20;;;;;;;;;;5074128;28;20509;-62
2023/04/03 08:10:36;;;;;;;9.05;5.32;;;;;;;;;;5074486;28;20484;-62
2023/04/03 08:13:04;;;;;;;9.48;5.43;;;;;;;;;;5075089;28;20220;-62
2023/04/03 08:15:32;;;;;;;8.85;5.28;;;;;;;;;;5074862;28;20204;-62
2023/04/03 08:17:59;;;;;;;8.73;5.35;;;;;;;;;;5075053;28;20235;-62
2023/04/03 08:20:26;;;;;;;7.15;4.90;;;;;;;;;;5082506;28;20564;-62
2023/04/03 08:22:54;;;;;;;7.43;5.00;;;;;;;;;;5074252;28;20208;-62
2023/04/03 08:25:21;;;;;;;7.88;4.68;;;;;;;;;;5074664;28;20200;-62
2023/04/03 08:27:52;;;;;;;6.40;4.57;;;;;;;;;;5086243;28;20204;-62
2023/04/03 08:30:20;;;;;;;7.32;4.85;;;;;;;;;;5094702;28;20212;-62
2023/04/03 08:32:47;;;;;;;7.53;4.90;;;;;;;;;;5094692;28;20223;-62
2023/04/03 08:35:14;;;;;;;7.07;4.40;;;;;;;;;;5094215;28;20217;-62
2023/04/03 08:37:42;;;;;;;7.32;4.90;;;;;;;;;;5093712;28;20223;-62
2023/04/03 08:40:14;;;;;;;6.57;4.38;;;;;;;;;;5093696;28;20203;-62
2023/04/03 08:42:45;;;;;;;5.80;4.70;;;;;;;;;;5093968;28;20382;-62
2023/04/03 08:45:17;;;;;;;7.97;4.95;;;;;;;;;;5094319;28;20215;-62
2023/04/03 08:47:47;;;;;;;7.72;4.57;;;;;;;;;;5095460;28;20207;-62
2023/04/03 08:50:17;;;;;;;7.43;4.63;;;;;;;;;;5094679;28;20485;-62
2023/04/03 08:52:46;;;;;;;7.47;4.50;;;;;;;;;;5094288;28;20220;-62
2023/04/03 08:55:17;;;;;;;7.95;4.75;;;;;;;;;;5093233;28;20269;-62
2023/04/03 08:57:46;;;;;;;6.97;4.43;;;;;;;;;;5088760;28;20228;-62
2023/04/03 09:00:19;;;;;;;6.20;4.55;;;;;;;;;;5073557;28;20204;-62
2023/04/03 09:02:47;;;;;;;5.40;4.05;;;;;;;;;;5073281;28;20196;-62
2023/04/03 09:05:16;;;;;;;5.57;4.60;;;;;;;;;;5073639;28;20204;-62
2023/04/03 09:07:45;;;;;;;7.13;4.18;;;;;;;;;;5073949;28;20208;-62
2023/04/03 09:10:13;;;;;;;5.68;4.25;;;;;;;;;;5073289;28;20204;-62
2023/04/03 09:12:43;;;;;;;5.93;4.20;;;;;;;;;;5072729;28;20235;-62
2023/04/03 09:15:16;;;;;;;5.13;3.95;;;;;;;;;;5072735;28;20307;-62
2023/04/03 09:17:51;;;;;;;5.28;4.03;;;;;;;;;;5072498;28;20564;-62
2023/04/03 09:20:21;;;;;;;5.35;4.15;;;;;;;;;;5072328;28;20306;-62
2023/04/03 09:22:50;;;;;;;5.82;3.88;;;;;;;;;;5074557;28;20373;-62
2023/04/03 09:25:19;;;;;;;7.30;4.20;;;;;;;;;;5074546;28;20200;-62
2023/04/03 09:27:46;;;;;;;5.38;3.75;;;;;;;;;;5074698;28;20458;-62
2023/04/03 09:30:15;;;;;;;5.20;3.95;;;;;;;;;;5073467;28;20241;-60
2023/04/03 09:32:43;;;;;;;5.00;3.55;;;;;;;;;;5072368;28;20288;-61
2023/04/03 09:35:19;;;;;;;4.75;3.85;;;;;;;;;;5073421;28;20429;-61
2023/04/03 09:37:47;;;;;;;5.60;4.00;;;;;;;;;;5071835;28;20196;-61
2023/04/03 09:40:30;;;;;;;5.20;4.13;;;;;;;;;;5071039;28;20204;-61
2023/04/03 09:42:59;;;;;;;6.20;3.75;;;;;;;;;;5069746;28;20608;-61
2023/04/03 09:45:27;;;;;;;5.38;3.75;;;;;;;;;;5073774;28;20211;-61
2023/04/03 09:48:06;;;;;;;5.28;3.72;;;;;;;;;;5072546;28;20299;-61
2023/04/03 09:50:35;;;;;;;4.55;3.42;;;;;;;;;;5077272;28;20204;-61
2023/04/03 09:53:06;;;;;;;5.70;3.78;;;;;;;;;;5078047;28;20323;-61
2023/04/03 09:55:34;;;;;;;4.15;3.45;;;;;;;;;;5077146;28;20299;-61
2023/04/03 09:58:02;;;;;;;5.82;3.92;;;;;;;;;;5093012;28;20681;-61
2023/04/03 10:00:32;;;;;;;4.60;3.65;;;;;;;;;;5096015;28;20318;-61
2023/04/03 10:03:00;;;;;;;3.97;2.97;;;;;;;;;;5086655;28;20468;-61
2023/04/03 10:05:29;;;;;;;3.67;3.08;;;;;;;;;;5097533;28;20230;-61
2023/04/03 10:08:12;;;;;;;3.80;2.92;;;;;;;;;;5077728;28;20208;-61
2023/04/03 10:10:39;;;;;;;3.53;2.90;;;;;;;;;;5091749;28;20603;-61
2023/04/03 10:13:07;;;;;;;3.85;2.85;;;;;;;;;;5096476;28;20223;-61
2023/04/03 10:15:37;;;;;;;3.78;3.08;;;;;;;;;;5096305;28;20308;-61
2023/04/03 10:18:09;;;;;;;4.20;3.03;;;;;;;;;;5095878;28;20221;-61
2023/04/03 10:20:39;;;;;;;3.78;2.83;;;;;;;;;;5097053;28;20203;-61
2023/04/03 10:23:17;;;;;;;3.25;2.95;;;;;;;;;;5097441;28;20200;-61
2023/04/03 10:25:50;;;;;;;3.47;2.85;;;;;;;;;;5096532;28;20227;-61
2023/04/03 10:28:22;;;;;;;3.10;2.80;;;;;;;;;;5096029;28;20204;-61
2023/04/03 10:30:52;;;;;;;5.43;3.05;;;;;;;;;;5097069;28;20211;-61
2023/04/03 10:33:28;;;;;;;3.30;2.88;;;;;;;;;;5096941;28;20235;-61
2023/04/03 10:36:01;;;;;;;2.40;2.20;;;;;;;;;;5085241;28;20208;-61
2023/04/03 10:38:35;;;;;;;2.80;2.50;;;;;;;;;;5076650;28;20536;-61
2023/04/03 10:41:06;;;;;;;3.65;2.75;;;;;;;;;;5076698;28;20212;-61
2023/04/03 10:43:38;;;;;;;3.45;2.72;;;;;;;;;;5076263;28;20208;-61
2023/04/03 10:46:08;;;;;;;3.30;2.63;;;;;;;;;;5076545;28;20304;-61
2023/04/03 10:48:41;;;;;;;3.72;2.55;;;;;;;;;;5076183;28;20216;-61
2023/04/03 10:51:14;;;;;;;3.17;2.70;;;;;;;;;;5075615;28;20223;-62
2023/04/03 10:53:49;;;;;;;2.95;2.40;;;;;;;;;;5077038;28;20320;-62
2023/04/03 10:56:19;;;;;;;3.00;2.55;;;;;;;;;;5077302;28;20227;-62
2023/04/03 10:58:50;;;;;;;2.90;2.20;;;;;;;;;;5076769;28;20265;-62
2023/04/03 11:01:20;;;;;;;2.25;2.05;;;;;;;;;;5075825;28;20281;-62
2023/04/03 11:03:50;;;;;;;3.15;2.25;;;;;;;;;;5075752;28;20222;-62
2023/04/03 11:06:18;;;;;;;2.00;1.80;;;;;;;;;;5094241;28;20227;-62
2023/04/03 11:08:51;;;;;;;2.58;2.10;;;;;;;;;;5096588;28;20294;-62
2023/04/03 11:11:19;;;;;;;2.30;2.10;;;;;;;;;;5096839;28;20281;-62
2023/04/03 11:13:51;;;;;;;3.35;2.33;;;;;;;;;;5096434;28;20630;-62
2023/04/03 11:16:20;;;;;;;2.45;1.95;;;;;;;;;;5097534;28;20212;-61
2023/04/03 11:18:51;;;;;;;2.42;2.03;;;;;;;;;;5096812;28;20472;-61
2023/04/03 11:21:22;;;;;;;2.33;2.00;;;;;;;;;;5095962;28;20204;-61
2023/04/03 11:23:52;;;;;;;2.65;2.17;;;;;;;;;;5095842;28;20557;-61
2023/04/03 11:26:20;;;;;;;2.47;2.00;;;;;;;;;;5096459;28;20230;-61
2023/04/03 11:28:48;;;;;;;2.53;1.83;;;;;;;;;;5096293;28;20532;-61
2023/04/03 11:31:21;;;;;;;2.40;2.13;;;;;;;;;;5096213;28;20211;-62
2023/04/03 11:33:53;;;;;;;3.17;2.17;;;;;;;;;;5096197;28;20234;-61
2023/04/03 11:36:23;;;;;;;2.08;1.60;;;;;;;;;;5095202;28;20265;-62
2023/04/03 11:38:54;;;;;;;2.15;1.80;;;;;;;;;;5096038;28;20211;-62
2023/04/03 11:41:26;;;;;;;2.00;1.80;;;;;;;;;;5096197;28;20196;-62
2023/04/03 11:43:58;;;;;;;2.20;1.95;;;;;;;;;;5095656;28;20204;-62
2023/04/03 11:46:49;;;;;;;2.60;1.90;;;;;;;;;;5096175;28;20242;-62
2023/04/03 11:49:31;;;;;;;2.30;1.70;;;;;;;;;;5095813;28;20212;-62
2023/04/03 11:51:58;;;;;;;1.77;1.58;;;;;;;;;;5094803;28;20203;-62
2023/04/03 11:54:44;;;;;;;2.20;1.80;;;;;;;;;;5095100;28;20220;-62
2023/04/03 11:57:46;;;;;;;1.60;1.50;;;;;;;;;;5095085;28;20296;-62
2023/04/03 12:00:32;;;;;;;1.60;1.50;;;;;;;;;;5095313;28;20214;-62
2023/04/03 12:02:59;;;;;;;1.88;1.65;;;;;;;;;;5095352;28;20213;-62
2023/04/03 12:05:28;;;;;;;2.70;1.80;;;;;;;;;;5094746;28;20767;-62
2023/04/03 12:08:17;;;;;;;1.90;1.67;;;;;;;;;;5094730;28;20212;-62
2023/04/03 12:10:44;;;;;;;1.65;1.35;;;;;;;;;;5070417;28;20236;-62
2023/04/03 12:13:17;;;;;;;1.52;1.42;;;;;;;;;;5073937;28;20875;-62
2023/04/03 12:15:56;;;;;;;1.70;1.58;;;;;;;;;;5074855;28;20596;-62
2023/04/03 12:18:41;;;;;;;2.03;1.52;;;;;;;;;;5074278;28;20210;-62
2023/04/03 12:21:09;;;;;;;2.15;1.83;;;;;;;;;;5075341;28;20555;-62
2023/04/03 12:23:38;;;;;;;1.77;1.67;;;;;;;;;;5074521;28;20196;-62
2023/04/03 12:26:22;;;;;;;1.70;1.45;;;;;;;;;;5073761;28;20200;-62
2023/04/03 12:28:52;;;;;;;1.73;1.30;;;;;;;;;;5074587;28;20208;-62
2023/04/03 12:31:20;;;;;;;2.38;1.42;;;;;;;;;;5074199;28;20781;-62
2023/04/03 12:34:05;;;;;;;1.70;1.35;;;;;;;;;;5074217;28;20224;-62
2023/04/03 12:36:38;;;;;;;1.38;1.20;;;;;;;;;;5089408;28;20203;-62
2023/04/03 12:39:12;;;;;;;1.35;1.25;;;;;;;;;;5094516;28;20214;-62
2023/04/03 12:41:44;;;;;;;1.40;1.30;;;;;;;;;;5094789;28;20617;-61
2023/04/03 12:44:21;;;;;;;1.58;1.30;;;;;;;;;;5093915;28;20210;-61
2023/04/03 12:46:50;;;;;;;1.70;1.17;;;;;;;;;;5094031;28;20214;-62
2023/04/03 12:49:28;;;;;;;1.25;1.10;;;;;;;;;;5094398;28;20215;-61
2023/04/03 12:51:55;;;;;;;1.20;1.10;;;;;;;;;;5094551;28;20200;-61
2023/04/03 12:54:24;;;;;;;1.63;1.20;;;;;;;;;;5093032;28;20220;-61
2023/04/03 12:56:51;;;;;;;1.40;1.13;;;;;;;;;;5093819;28;20747;-61
2023/04/03 12:59:22;;;;;;;1.40;1.30;;;;;;;;;;5095153;28;20301;-61
2023/04/03 13:01:56;;;;;;;1.33;1.23;;;;;;;;;;5094754;28;20627;-61
2023/04/03 13:04:23;;;;;;;1.30;1.10;;;;;;;;;;5093574;28;20196;-61
2023/04/03 13:06:52;;;;;;;1.60;1.40;;;;;;;;;;5093300;28;20210;-61
2023/04/03 13:09:22;;;;;;;1.20;1.00;;;;;;;;;;5093610;28;20207;-61
2023/04/03 13:11:51;;;;;;;1.38;1.20;;;;;;;;;;5094048;28;20245;-61
2023/04/03 13:14:20;;;;;;;1.13;1.02;;;;;;;;;;5094191;28;20235;-61
2023/04/03 13:16:57;;;;;;;1.60;1.30;;;;;;;;;;5094219;28;20235;-61
2023/04/03 13:19:25;;;;;;;1.40;1.02;;;;;;;;;;5094004;28;20268;-61
2023/04/03 13:21:57;;;;;;;1.13;1.00;;;;;;;;;;5094047;28;20203;-61
2023/04/03 13:24:24;;;;;;;1.25;0.90;;;;;;;;;;5092943;28;20597;-62
2023/04/03 13:26:52;;;;;;;1.02;0.93;;;;;;;;;;5093842;28;20199;-61
2023/04/03 13:29:22;;;;;;;1.20;1.10;;;;;;;;;;5094243;28;20211;-61
2023/04/03 13:31:54;;;;;;;1.17;1.05;;;;;;;;;;5093788;28;20215;-61
2023/04/03 13:34:25;;;;;;;1.50;1.10;;;;;;;;;;5093929;28;20633;-61
2023/04/03 13:36:57;;;;;;;1.00;0.90;;;;;;;;;;5093593;28;20203;-62
2023/04/03 13:39:25;;;;;;;1.00;1.00;;;;;;;;;;5093352;28;20212;-62
2023/04/03 13:41:54;;;;;;;1.05;0.95;;;;;;;;;;5092639;28;20244;-61
2023/04/03 13:44:30;;;;;;;0.80;0.80;;;;;;;;;;5093375;28;20199;-61
2023/04/03 13:46:59;;;;;;;0.98;0.90;;;;;;;;;;5092909;28;20203;-61
2023/04/03 13:49:32;;;;;;;1.02;0.90;;;;;;;;;;5093164;28;20210;-62
2023/04/03 13:52:00;;;;;;;1.58;1.10;;;;;;;;;;5093294;28;20203;-62
2023/04/03 13:54:30;;;;;;;1.17;0.90;;;;;;;;;;5093781;28;20219;-62
2023/04/03 13:56:59;;;;;;;0.98;0.90;;;;;;;;;;5093792;28;20223;-61
2023/04/03 13:59:29;;;;;;;1.17;0.82;;;;;;;;;;5093402;28;20211;-61
2023/04/03 14:02:08;;;;;;;1.13;0.80;;;;;;;;;;5093173;28;20204;-61
2023/04/03 14:04:48;;;;;;;2.60;1.10;;;;;;;;;;5093513;28;20197;-61
2023/04/03 14:07:17;;;;;;;1.05;0.95;;;;;;;;;;5092985;28;20305;-61
2023/04/03 14:09:45;;;;;;;1.05;0.73;;;;;;;;;;5093261;28;20286;-61
2023/04/03 14:12:15;;;;;;;1.10;0.90;;;;;;;;;;5093516;28;20204;-61
2023/04/03 14:14:43;;;;;;;1.20;1.05;;;;;;;;;;5092922;28;20223;-61
2023/04/03 14:17:14;;;;;;;2.55;0.90;;;;;;;;;;5092786;28;20203;-61
2023/04/03 14:19:43;;;;;;;0.68;0.68;;;;;;;;;;5093662;28;20226;-61
2023/04/03 14:22:14;;;;;;;0.88;0.80;;;;;;;;;;5093135;28;20207;-61
2023/04/03 14:24:42;;;;;;;1.60;0.90;;;;;;;;;;5092984;28;20635;-62
2023/04/03 14:27:14;;;;;;;1.33;0.75;;;;;;;;;;5093097;28;20204;-62
2023/04/03 14:29:42;;;;;;;1.30;0.73;;;;;;;;;;5093343;28;20214;-62
2023/04/03 14:32:09;;;;;;;1.52;0.90;;;;;;;;;;5077711;28;20208;-62
2023/04/03 14:34:36;;;;;;;2.22;0.90;;;;;;;;;;5073035;28;20216;-62
2023/04/03 14:37:06;;;;;;;1.00;0.88;;;;;;;;;;5076707;28;20212;-62
2023/04/03 14:39:33;;;;;;;1.20;0.85;;;;;;;;;;5076822;28;20266;-63
2023/04/03 14:42:01;;;;;;;0.95;0.65;;;;;;;;;;5077079;28;20639;-62
2023/04/03 14:44:28;;;;;;;1.58;0.73;;;;;;;;;;5077792;28;20238;-62
2023/04/03 14:46:56;;;;;;;1.35;0.75;;;;;;;;;;5076989;28;20208;-62
2023/04/03 14:49:25;;;;;;;1.92;0.70;;;;;;;;;;5075735;28;20273;-62
2023/04/03 14:51:52;;;;;;;1.90;0.70;;;;;;;;;;5076810;28;20204;-62
2023/04/03 14:54:25;;;;;;;0.93;0.80;;;;;;;;;;5076405;28;20255;-62
2023/04/03 14:56:52;;;;;;;1.10;0.80;;;;;;;;;;5075473;28;20243;-62